sensor_id;sensor_type;location;lat;lon;timestamp;pressure;altitude;pressure_sealevel;temperature;humidity
77090;BME280;66028;53.558;9.950;2024-02-26T00:00:34;100148.22;;;3.78;98.95
77090;BME280;66028;53.558;9.950;2024-02-26T00:03:00;100148.63;;;3.75;99.32
77090;BME280;66028;53.558;9.950;2024-02-26T00:05:25;100149.69;;;3.74;99.54
77090;BME280;66028;53.558;9.950;2024-02-26T00:07:50;100150.31;;;3.70;98.96
77090;BME280;66028;53.558;9.950;2024-02-26T00:10:16;100149.28;;;3.64;99.41
77090;BME280;66028;53.558;9.950;2024-02-26T00:12:41;100156.28;;;3.65;99.25
77090;BME280;66028;53.558;9.950;2024-02-26T00:15:07;100154.63;;;3.64;99.03
77090;BME280;66028;53.558;9.950;2024-02-26T00:17:32;100150.75;;;3.60;99.63
77090;BME280;66028;53.558;9.950;2024-02-26T00:19:58;100155.06;;;3.54;99.17
77090;BME280;66028;53.558;9.950;2024-02-26T00:22:23;100158.41;;;3.50;99.97
77090;BME280;66028;53.558;9.950;2024-02-26T00:24:48;100155.50;;;3.45;100.00
77090;BME280;66028;53.558;9.950;2024-02-26T00:27:14;100149.94;;;3.40;100.00
77090;BME280;66028;53.558;9.950;2024-02-26T00:29:39;100143.19;;;3.37;99.58
77090;BME280;66028;53.558;9.950;2024-02-26T00:32:05;100141.31;;;3.44;100.00
77090;BME280;66028;53.558;9.950;2024-02-26T00:34:30;100144.41;;;3.48;99.54
77090;BME280;66028;53.558;9.950;2024-02-26T00:36:56;100136.34;;;3.41;99.28
77090;BME280;66028;53.558;9.950;2024-02-26T00:39:21;100142.16;;;3.32;98.87
77090;BME280;66028;53.558;9.950;2024-02-26T00:41:46;100151.59;;;3.28;99.40
77090;BME280;66028;53.558;9.950;2024-02-26T00:44:11;100147.72;;;3.23;99.76
77090;BME280;66028;53.558;9.950;2024-02-26T00:46:37;100145.66;;;3.19;98.86
77090;BME280;66028;53.558;9.950;2024-02-26T00:49:02;100153.25;;;3.15;99.20
77090;BME280;66028;53.558;9.950;2024-02-26T00:51:28;100151.22;;;3.24;99.02
77090;BME280;66028;53.558;9.950;2024-02-26T00:53:54;100156.56;;;3.24;99.15
77090;BME280;66028;53.558;9.950;2024-02-26T00:56:19;100155.31;;;3.20;98.65
77090;BME280;66028;53.558;9.950;2024-02-26T00:58:44;100151.22;;;3.17;99.46
77090;BME280;66028;53.558;9.950;2024-02-26T01:01:10;100158.81;;;3.07;99.61
77090;BME280;66028;53.558;9.950;2024-02-26T01:03:35;100154.94;;;3.10;99.56
77090;BME280;66028;53.558;9.950;2024-02-26T01:06:00;100152.03;;;3.05;99.33
77090;BME280;66028;53.558;9.950;2024-02-26T01:08:25;100151.22;;;2.98;100.00
77090;BME280;66028;53.558;9.950;2024-02-26T01:10:51;100148.97;;;2.88;100.00
77090;BME280;66028;53.558;9.950;2024-02-26T01:13:16;100151.00;;;2.93;100.00
77090;BME280;66028;53.558;9.950;2024-02-26T01:15:41;100145.47;;;3.01;100.00
77090;BME280;66028;53.558;9.950;2024-02-26T01:18:09;100154.50;;;3.00;100.00
77090;BME280;66028;53.558;9.950;2024-02-26T01:20:34;100149.78;;;2.95;99.71
77090;BME280;66028;53.558;9.950;2024-02-26T01:22:59;100157.56;;;2.90;100.00
77090;BME280;66028;53.558;9.950;2024-02-26T01:25:24;100162.72;;;2.92;100.00
77090;BME280;66028;53.558;9.950;2024-02-26T01:27:50;100160.06;;;2.85;99.93
77090;BME280;66028;53.558;9.950;2024-02-26T01:30:15;100161.28;;;2.82;99.90
77090;BME280;66028;53.558;9.950;2024-02-26T01:32:42;100152.63;;;2.80;100.00
77090;BME280;66028;53.558;9.950;2024-02-26T01:35:08;100159.00;;;2.79;100.00
77090;BME280;66028;53.558;9.950;2024-02-26T01:37:35;100147.31;;;2.74;100.00
77090;BME280;66028;53.558;9.950;2024-02-26T01:40:01;100148.75;;;2.76;100.00
77090;BME280;66028;53.558;9.950;2024-02-26T01:42:29;100159.44;;;2.76;100.00
77090;BME280;66028;53.558;9.950;2024-02-26T01:44:54;100166.44;;;2.77;100.00
77090;BME280;66028;53.558;9.950;2024-02-26T01:47:19;100155.31;;;2.80;100.00
77090;BME280;66028;53.558;9.950;2024-02-26T01:49:45;100165.38;;;2.78;100.00
77090;BME280;66028;53.558;9.950;2024-02-26T01:52:10;100167.84;;;2.73;100.00
77090;BME280;66028;53.558;9.950;2024-02-26T01:54:37;100165.78;;;2.69;100.00
77090;BME280;66028;53.558;9.950;2024-02-26T01:57:05;100167.22;;;2.65;100.00
77090;BME280;66028;53.558;9.950;2024-02-26T01:59:31;100164.75;;;2.63;100.00
77090;BME280;66028;53.558;9.950;2024-02-26T02:01:59;100165.59;;;2.70;100.00
77090;BME280;66028;53.558;9.950;2024-02-26T02:04:26;100169.47;;;2.68;100.00
77090;BME280;66028;53.558;9.950;2024-02-26T02:06:52;100171.31;;;2.67;100.00
77090;BME280;66028;53.558;9.950;2024-02-26T02:09:18;100166.19;;;2.66;100.00
77090;BME280;66028;53.558;9.950;2024-02-26T02:11:43;100161.25;;;2.69;100.00
77090;BME280;66028;53.558;9.950;2024-02-26T02:14:09;100169.28;;;2.63;100.00
77090;BME280;66028;53.558;9.950;2024-02-26T02:16:34;100168.47;;;2.62;100.00
77090;BME280;66028;53.558;9.950;2024-02-26T02:18:59;100160.00;;;2.59;100.00
77090;BME280;66028;53.558;9.950;2024-02-26T02:21:25;100160.84;;;2.59;100.00
77090;BME280;66028;53.558;9.950;2024-02-26T02:23:50;100161.03;;;2.58;100.00
77090;BME280;66028;53.558;9.950;2024-02-26T02:26:15;100167.63;;;2.62;100.00
77090;BME280;66028;53.558;9.950;2024-02-26T02:28:41;100162.69;;;2.52;100.00
77090;BME280;66028;53.558;9.950;2024-02-26T02:31:07;100164.34;;;2.53;100.00
77090;BME280;66028;53.558;9.950;2024-02-26T02:33:33;100172.50;;;2.45;100.00
77090;BME280;66028;53.558;9.950;2024-02-26T02:35:59;100179.50;;;2.39;100.00
77090;BME280;66028;53.558;9.950;2024-02-26T02:38:24;100176.41;;;2.36;100.00
77090;BME280;66028;53.558;9.950;2024-02-26T02:40:51;100176.16;;;2.31;100.00
77090;BME280;66028;53.558;9.950;2024-02-26T02:43:16;100174.50;;;2.30;100.00
77090;BME280;66028;53.558;9.950;2024-02-26T02:45:42;100172.28;;;2.33;100.00
77090;BME280;66028;53.558;9.950;2024-02-26T02:48:07;100178.84;;;2.31;100.00
77090;BME280;66028;53.558;9.950;2024-02-26T02:50:32;100179.84;;;2.30;100.00
77090;BME280;66028;53.558;9.950;2024-02-26T02:52:58;100180.72;;;2.37;100.00
77090;BME280;66028;53.558;9.950;2024-02-26T02:55:23;100178.44;;;2.34;100.00
77090;BME280;66028;53.558;9.950;2024-02-26T02:57:48;100184.19;;;2.31;100.00
77090;BME280;66028;53.558;9.950;2024-02-26T03:00:14;100193.44;;;2.28;100.00
77090;BME280;66028;53.558;9.950;2024-02-26T03:02:39;100192.19;;;2.24;100.00
77090;BME280;66028;53.558;9.950;2024-02-26T03:05:05;100189.72;;;2.23;100.00
77090;BME280;66028;53.558;9.950;2024-02-26T03:07:30;100189.28;;;2.19;100.00
77090;BME280;66028;53.558;9.950;2024-02-26T03:09:55;100188.06;;;2.22;100.00
77090;BME280;66028;53.558;9.950;2024-02-26T03:12:21;100194.41;;;2.21;100.00
77090;BME280;66028;53.558;9.950;2024-02-26T03:14:46;100202.03;;;2.24;100.00
77090;BME280;66028;53.558;9.950;2024-02-26T03:17:11;100190.28;;;2.18;100.00
77090;BME280;66028;53.558;9.950;2024-02-26T03:19:37;100197.06;;;2.14;100.00
77090;BME280;66028;53.558;9.950;2024-02-26T03:22:02;100192.75;;;2.13;100.00
77090;BME280;66028;53.558;9.950;2024-02-26T03:24:27;100191.53;;;2.15;100.00
77090;BME280;66028;53.558;9.950;2024-02-26T03:26:52;100190.53;;;2.16;100.00
77090;BME280;66028;53.558;9.950;2024-02-26T03:29:18;100191.94;;;2.19;100.00
77090;BME280;66028;53.558;9.950;2024-02-26T03:31:43;100193.59;;;2.13;100.00
77090;BME280;66028;53.558;9.950;2024-02-26T03:34:08;100198.50;;;2.10;100.00
77090;BME280;66028;53.558;9.950;2024-02-26T03:36:34;100191.88;;;2.06;100.00
77090;BME280;66028;53.558;9.950;2024-02-26T03:38:59;100197.44;;;2.04;100.00
77090;BME280;66028;53.558;9.950;2024-02-26T03:41:24;100192.09;;;2.04;100.00
77090;BME280;66028;53.558;9.950;2024-02-26T03:43:50;100193.72;;;2.05;100.00
77090;BME280;66028;53.558;9.950;2024-02-26T03:46:15;100197.91;;;2.14;100.00
77090;BME280;66028;53.558;9.950;2024-02-26T03:48:41;100203.44;;;2.13;100.00
77090;BME280;66028;53.558;9.950;2024-02-26T03:51:08;100211.88;;;2.16;100.00
77090;BME280;66028;53.558;9.950;2024-02-26T03:53:34;100220.88;;;2.09;100.00
77090;BME280;66028;53.558;9.950;2024-02-26T03:56:03;100222.06;;;2.00;100.00
77090;BME280;66028;53.558;9.950;2024-02-26T03:58:28;100231.28;;;1.97;100.00
77090;BME280;66028;53.558;9.950;2024-02-26T04:00:53;100233.56;;;2.00;100.00
77090;BME280;66028;53.558;9.950;2024-02-26T04:03:19;100232.50;;;1.95;100.00
77090;BME280;66028;53.558;9.950;2024-02-26T04:05:44;100239.53;;;2.02;100.00
77090;BME280;66028;53.558;9.950;2024-02-26T04:08:09;100243.41;;;2.00;100.00
77090;BME280;66028;53.558;9.950;2024-02-26T04:10:35;100240.50;;;1.95;100.00
77090;BME280;66028;53.558;9.950;2024-02-26T04:13:03;100248.38;;;2.03;100.00
77090;BME280;66028;53.558;9.950;2024-02-26T04:15:28;100247.97;;;2.06;100.00
77090;BME280;66028;53.558;9.950;2024-02-26T04:17:54;100255.75;;;2.01;100.00
77090;BME280;66028;53.558;9.950;2024-02-26T04:20:19;100257.97;;;1.97;100.00
77090;BME280;66028;53.558;9.950;2024-02-26T04:22:44;100258.41;;;2.01;100.00
77090;BME280;66028;53.558;9.950;2024-02-26T04:25:10;100271.34;;;1.97;100.00
77090;BME280;66028;53.558;9.950;2024-02-26T04:27:35;100277.28;;;1.93;100.00
77090;BME280;66028;53.558;9.950;2024-02-26T04:30:01;100274.16;;;1.89;100.00
77090;BME280;66028;53.558;9.950;2024-02-26T04:32:26;100279.06;;;1.86;100.00
77090;BME280;66028;53.558;9.950;2024-02-26T04:34:51;100282.56;;;1.86;100.00
77090;BME280;66028;53.558;9.950;2024-02-26T04:37:16;100275.56;;;1.85;100.00
77090;BME280;66028;53.558;9.950;2024-02-26T04:39:42;100284.22;;;1.87;100.00
77090;BME280;66028;53.558;9.950;2024-02-26T04:42:07;100295.25;;;1.84;100.00
77090;BME280;66028;53.558;9.950;2024-02-26T04:44:32;100305.13;;;1.84;100.00
77090;BME280;66028;53.558;9.950;2024-02-26T04:46:57;100301.03;;;1.88;100.00
77090;BME280;66028;53.558;9.950;2024-02-26T04:49:23;100302.25;;;1.85;100.00
77090;BME280;66028;53.558;9.950;2024-02-26T04:51:48;100302.50;;;1.90;100.00
77090;BME280;66028;53.558;9.950;2024-02-26T04:54:13;100302.69;;;1.89;100.00
77090;BME280;66028;53.558;9.950;2024-02-26T04:56:38;100302.44;;;1.84;100.00
77090;BME280;66028;53.558;9.950;2024-02-26T04:59:04;100306.97;;;1.83;100.00
77090;BME280;66028;53.558;9.950;2024-02-26T05:01:29;100307.38;;;1.80;100.00
77090;BME280;66028;53.558;9.950;2024-02-26T05:03:54;100315.38;;;1.80;100.00
77090;BME280;66028;53.558;9.950;2024-02-26T05:06:20;100313.09;;;1.77;100.00
77090;BME280;66028;53.558;9.950;2024-02-26T05:08:45;100319.81;;;1.73;100.00
77090;BME280;66028;53.558;9.950;2024-02-26T05:11:11;100327.91;;;1.79;100.00
77090;BME280;66028;53.558;9.950;2024-02-26T05:13:36;100323.13;;;1.75;100.00
77090;BME280;66028;53.558;9.950;2024-02-26T05:16:01;100320.50;;;1.81;100.00
77090;BME280;66028;53.558;9.950;2024-02-26T05:18:27;100331.16;;;1.81;100.00
77090;BME280;66028;53.558;9.950;2024-02-26T05:20:53;100329.13;;;1.84;100.00
77090;BME280;66028;53.558;9.950;2024-02-26T05:23:18;100320.31;;;1.83;100.00
77090;BME280;66028;53.558;9.950;2024-02-26T05:25:43;100318.09;;;1.87;100.00
77090;BME280;66028;53.558;9.950;2024-02-26T05:28:10;100324.44;;;1.86;100.00
77090;BME280;66028;53.558;9.950;2024-02-26T05:30:36;100331.28;;;1.95;100.00
77090;BME280;66028;53.558;9.950;2024-02-26T05:33:01;100335.78;;;1.94;100.00
77090;BME280;66028;53.558;9.950;2024-02-26T05:35:26;100330.84;;;1.91;100.00
77090;BME280;66028;53.558;9.950;2024-02-26T05:37:51;100339.63;;;1.85;100.00
77090;BME280;66028;53.558;9.950;2024-02-26T05:40:17;100346.81;;;1.85;100.00
77090;BME280;66028;53.558;9.950;2024-02-26T05:42:42;100349.84;;;1.81;100.00
77090;BME280;66028;53.558;9.950;2024-02-26T05:45:10;100355.84;;;1.84;100.00
77090;BME280;66028;53.558;9.950;2024-02-26T05:47:35;100355.00;;;1.83;100.00
77090;BME280;66028;53.558;9.950;2024-02-26T05:50:04;100355.91;;;1.90;100.00
77090;BME280;66028;53.558;9.950;2024-02-26T05:52:29;100351.19;;;1.92;100.00
77090;BME280;66028;53.558;9.950;2024-02-26T05:54:56;100348.91;;;1.89;100.00
77090;BME280;66028;53.558;9.950;2024-02-26T05:57:21;100350.94;;;1.87;100.00
77090;BME280;66028;53.558;9.950;2024-02-26T05:59:46;100363.47;;;1.87;100.00
77090;BME280;66028;53.558;9.950;2024-02-26T06:02:11;100370.66;;;1.86;100.00
77090;BME280;66028;53.558;9.950;2024-02-26T06:04:37;100374.13;;;1.87;100.00
77090;BME280;66028;53.558;9.950;2024-02-26T06:07:02;100379.09;;;1.90;100.00
77090;BME280;66028;53.558;9.950;2024-02-26T06:09:27;100371.03;;;1.83;100.00
77090;BME280;66028;53.558;9.950;2024-02-26T06:11:53;100374.31;;;1.85;100.00
77090;BME280;66028;53.558;9.950;2024-02-26T06:14:18;100380.31;;;1.87;100.00
77090;BME280;66028;53.558;9.950;2024-02-26T06:16:44;100389.31;;;1.86;100.00
77090;BME280;66028;53.558;9.950;2024-02-26T06:19:09;100386.03;;;1.84;100.00
77090;BME280;66028;53.558;9.950;2024-02-26T06:21:35;100386.91;;;1.91;100.00
77090;BME280;66028;53.558;9.950;2024-02-26T06:24:01;100389.31;;;1.86;100.00
77090;BME280;66028;53.558;9.950;2024-02-26T06:26:26;100392.63;;;1.88;100.00
77090;BME280;66028;53.558;9.950;2024-02-26T06:28:54;100392.63;;;1.88;100.00
77090;BME280;66028;53.558;9.950;2024-02-26T06:31:19;100390.53;;;1.84;100.00
77090;BME280;66028;53.558;9.950;2024-02-26T06:33:46;100395.31;;;1.88;100.00
77090;BME280;66028;53.558;9.950;2024-02-26T06:36:11;100393.50;;;1.95;100.00
77090;BME280;66028;53.558;9.950;2024-02-26T06:38:37;100393.69;;;1.94;100.00
77090;BME280;66028;53.558;9.950;2024-02-26T06:41:02;100404.44;;;2.00;100.00
77090;BME280;66028;53.558;9.950;2024-02-26T06:43:28;100392.09;;;1.99;100.00
77090;BME280;66028;53.558;9.950;2024-02-26T06:45:53;100397.59;;;1.91;100.00
77090;BME280;66028;53.558;9.950;2024-02-26T06:48:19;100400.50;;;1.96;100.00
77090;BME280;66028;53.558;9.950;2024-02-26T06:50:44;100407.88;;;1.94;100.00
77090;BME280;66028;53.558;9.950;2024-02-26T06:53:09;100407.13;;;2.00;100.00
77090;BME280;66028;53.558;9.950;2024-02-26T06:55:34;100412.06;;;2.03;100.00
77090;BME280;66028;53.558;9.950;2024-02-26T06:58:00;100409.22;;;2.05;100.00
77090;BME280;66028;53.558;9.950;2024-02-26T07:00:25;100417.06;;;2.13;100.00
77090;BME280;66028;53.558;9.950;2024-02-26T07:02:50;100417.91;;;2.13;100.00
77090;BME280;66028;53.558;9.950;2024-02-26T07:05:16;100421.41;;;2.14;100.00
77090;BME280;66028;53.558;9.950;2024-02-26T07:07:41;100420.19;;;2.16;100.00
77090;BME280;66028;53.558;9.950;2024-02-26T07:10:06;100418.97;;;2.19;100.00
77090;BME280;66028;53.558;9.950;2024-02-26T07:12:32;100420.69;;;2.27;100.00
77090;BME280;66028;53.558;9.950;2024-02-26T07:14:57;100430.34;;;2.28;100.00
77090;BME280;66028;53.558;9.950;2024-02-26T07:17:23;100433.63;;;2.30;100.00
77090;BME280;66028;53.558;9.950;2024-02-26T07:19:48;100435.72;;;2.34;100.00
77090;BME280;66028;53.558;9.950;2024-02-26T07:22:13;100440.88;;;2.36;100.00
77090;BME280;66028;53.558;9.950;2024-02-26T07:24:40;100438.69;;;2.46;100.00
77090;BME280;66028;53.558;9.950;2024-02-26T07:27:05;100441.91;;;2.35;100.00
77090;BME280;66028;53.558;9.950;2024-02-26T07:29:30;100442.72;;;2.35;100.00
77090;BME280;66028;53.558;9.950;2024-02-26T07:31:56;100443.00;;;2.47;100.00
77090;BME280;66028;53.558;9.950;2024-02-26T07:34:21;100444.19;;;2.38;99.72
77090;BME280;66028;53.558;9.950;2024-02-26T07:36:52;100446.25;;;2.42;100.00
77090;BME280;66028;53.558;9.950;2024-02-26T07:39:18;100450.88;;;2.55;99.75
77090;BME280;66028;53.558;9.950;2024-02-26T07:41:43;100455.59;;;2.53;99.47
77090;BME280;66028;53.558;9.950;2024-02-26T07:44:11;100456.66;;;2.59;99.08
77090;BME280;66028;53.558;9.950;2024-02-26T07:46:36;100464.09;;;2.63;99.13
77090;BME280;66028;53.558;9.950;2024-02-26T07:49:02;100469.25;;;2.65;99.43
77090;BME280;66028;53.558;9.950;2024-02-26T07:51:27;100464.19;;;2.76;99.16
77090;BME280;66028;53.558;9.950;2024-02-26T07:53:53;100474.81;;;2.70;99.10
77090;BME280;66028;53.558;9.950;2024-02-26T07:56:18;100481.28;;;2.82;98.58
77090;BME280;66028;53.558;9.950;2024-02-26T07:58:43;100477.84;;;2.88;98.53
77090;BME280;66028;53.558;9.950;2024-02-26T08:01:08;100478.69;;;2.95;97.82
77090;BME280;66028;53.558;9.950;2024-02-26T08:03:34;100488.22;;;3.11;98.13
77090;BME280;66028;53.558;9.950;2024-02-26T08:05:59;100481.88;;;3.12;97.65
77090;BME280;66028;53.558;9.950;2024-02-26T08:08:24;100484.56;;;3.18;96.78
77090;BME280;66028;53.558;9.950;2024-02-26T08:10:49;100481.94;;;3.25;96.78
77090;BME280;66028;53.558;9.950;2024-02-26T08:13:15;100492.41;;;3.26;96.75
77090;BME280;66028;53.558;9.950;2024-02-26T08:15:40;100500.44;;;3.26;96.53
77090;BME280;66028;53.558;9.950;2024-02-26T08:18:05;100491.19;;;3.29;96.52
77090;BME280;66028;53.558;9.950;2024-02-26T08:20:31;100496.53;;;3.29;96.11
77090;BME280;66028;53.558;9.950;2024-02-26T08:22:56;100498.19;;;3.30;96.13
77090;BME280;66028;53.558;9.950;2024-02-26T08:25:22;100501.94;;;3.42;95.57
77090;BME280;66028;53.558;9.950;2024-02-26T08:27:48;100495.38;;;3.45;95.65
77090;BME280;66028;53.558;9.950;2024-02-26T08:30:14;100501.16;;;3.48;95.99
77090;BME280;66028;53.558;9.950;2024-02-26T08:32:45;100498.88;;;3.45;95.69
77090;BME280;66028;53.558;9.950;2024-02-26T08:35:10;100503.41;;;3.51;95.34
77090;BME280;66028;53.558;9.950;2024-02-26T08:37:36;100502.19;;;3.54;95.13
77090;BME280;66028;53.558;9.950;2024-02-26T08:40:01;100510.28;;;3.60;94.97
77090;BME280;66028;53.558;9.950;2024-02-26T08:42:26;100515.63;;;3.67;94.28
77090;BME280;66028;53.558;9.950;2024-02-26T08:44:51;100516.06;;;3.71;94.06
77090;BME280;66028;53.558;9.950;2024-02-26T08:47:17;100520.41;;;3.78;93.87
77090;BME280;66028;53.558;9.950;2024-02-26T08:49:44;100517.91;;;3.70;93.76
77090;BME280;66028;53.558;9.950;2024-02-26T08:52:09;100511.75;;;3.76;93.75
77090;BME280;66028;53.558;9.950;2024-02-26T08:54:34;100518.56;;;3.79;93.61
77090;BME280;66028;53.558;9.950;2024-02-26T08:57:00;100525.16;;;3.89;93.52
77090;BME280;66028;53.558;9.950;2024-02-26T08:59:25;100532.81;;;3.92;93.10
77090;BME280;66028;53.558;9.950;2024-02-26T09:01:50;100529.94;;;4.01;93.09
77090;BME280;66028;53.558;9.950;2024-02-26T09:04:15;100525.59;;;3.99;92.37
77090;BME280;66028;53.558;9.950;2024-02-26T09:06:41;100533.66;;;4.13;91.89
77090;BME280;66028;53.558;9.950;2024-02-26T09:09:06;100523.97;;;4.12;91.67
77090;BME280;66028;53.558;9.950;2024-02-26T09:11:31;100531.81;;;4.07;91.25
77090;BME280;66028;53.558;9.950;2024-02-26T09:13:56;100531.19;;;3.98;91.67
77090;BME280;66028;53.558;9.950;2024-02-26T09:16:22;100543.75;;;4.04;91.13
77090;BME280;66028;53.558;9.950;2024-02-26T09:18:47;100542.34;;;4.15;90.83
77090;BME280;66028;53.558;9.950;2024-02-26T09:21:12;100545.06;;;4.34;90.19
77090;BME280;66028;53.558;9.950;2024-02-26T09:23:37;100558.00;;;4.18;90.25
77090;BME280;66028;53.558;9.950;2024-02-26T09:26:05;100552.88;;;4.29;91.02
77090;BME280;66028;53.558;9.950;2024-02-26T09:28:30;100548.78;;;4.33;90.72
77090;BME280;66028;53.558;9.950;2024-02-26T09:31:00;100546.50;;;4.50;90.63
77090;BME280;66028;53.558;9.950;2024-02-26T09:33:25;100549.19;;;4.57;89.71
77090;BME280;66028;53.558;9.950;2024-02-26T09:35:50;100550.03;;;4.57;89.13
77090;BME280;66028;53.558;9.950;2024-02-26T09:38:15;100546.50;;;4.63;89.57
77090;BME280;66028;53.558;9.950;2024-02-26T09:40:41;100554.78;;;4.68;90.03
77090;BME280;66028;53.558;9.950;2024-02-26T09:43:06;100552.50;;;4.79;88.76
77090;BME280;66028;53.558;9.950;2024-02-26T09:45:36;100555.78;;;4.74;89.21
77090;BME280;66028;53.558;9.950;2024-02-26T09:48:02;100556.81;;;4.73;89.00
77090;BME280;66028;53.558;9.950;2024-02-26T09:50:29;100560.75;;;4.77;89.18
77090;BME280;66028;53.558;9.950;2024-02-26T09:52:54;100562.38;;;4.71;89.30
77090;BME280;66028;53.558;9.950;2024-02-26T09:55:19;100564.44;;;4.76;89.45
77090;BME280;66028;53.558;9.950;2024-02-26T09:57:46;100566.72;;;4.86;88.89
77090;BME280;66028;53.558;9.950;2024-02-26T10:00:17;100563.41;;;4.90;89.67
77090;BME280;66028;53.558;9.950;2024-02-26T10:02:45;100571.88;;;4.94;88.61
77090;BME280;66028;53.558;9.950;2024-02-26T10:05:12;100577.22;;;5.14;88.29
77090;BME280;66028;53.558;9.950;2024-02-26T10:07:39;100576.41;;;5.06;88.34
77090;BME280;66028;53.558;9.950;2024-02-26T10:10:05;100574.13;;;5.17;88.55
77090;BME280;66028;53.558;9.950;2024-02-26T10:12:31;100576.38;;;5.20;89.10
77090;BME280;66028;53.558;9.950;2024-02-26T10:14:57;100571.41;;;5.30;88.05
77090;BME280;66028;53.558;9.950;2024-02-26T10:17:22;100579.66;;;5.35;87.70
77090;BME280;66028;53.558;9.950;2024-02-26T10:19:48;100576.56;;;5.38;87.24
77090;BME280;66028;53.558;9.950;2024-02-26T10:22:13;100584.41;;;5.33;87.06
77090;BME280;66028;53.558;9.950;2024-02-26T10:24:38;100580.88;;;5.39;87.33
77090;BME280;66028;53.558;9.950;2024-02-26T10:27:04;100575.25;;;5.60;85.98
77090;BME280;66028;53.558;9.950;2024-02-26T10:29:30;100580.38;;;5.68;85.72
77090;BME280;66028;53.558;9.950;2024-02-26T10:31:56;100582.69;;;5.58;86.50
77090;BME280;66028;53.558;9.950;2024-02-26T10:34:22;100586.59;;;5.62;85.63
77090;BME280;66028;53.558;9.950;2024-02-26T10:36:49;100589.50;;;5.67;86.09
77090;BME280;66028;53.558;9.950;2024-02-26T10:39:14;100583.28;;;5.67;85.96
77090;BME280;66028;53.558;9.950;2024-02-26T10:41:40;100588.13;;;5.96;85.00
77090;BME280;66028;53.558;9.950;2024-02-26T10:44:08;100593.31;;;5.98;84.90
77090;BME280;66028;53.558;9.950;2024-02-26T10:46:34;100598.09;;;5.89;85.45
77090;BME280;66028;53.558;9.950;2024-02-26T10:48:59;100593.66;;;6.08;83.98
77090;BME280;66028;53.558;9.950;2024-02-26T10:51:27;100600.44;;;6.17;83.38
77090;BME280;66028;53.558;9.950;2024-02-26T10:53:56;100597.16;;;6.15;83.21
77090;BME280;66028;53.558;9.950;2024-02-26T10:56:27;100602.53;;;6.15;84.15
77090;BME280;66028;53.558;9.950;2024-02-26T10:58:53;100601.03;;;6.26;82.86
77090;BME280;66028;53.558;9.950;2024-02-26T11:01:20;100605.22;;;6.46;83.27
77090;BME280;66028;53.558;9.950;2024-02-26T11:03:48;100612.41;;;6.53;82.42
77090;BME280;66028;53.558;9.950;2024-02-26T11:06:15;100606.09;;;6.40;82.89
77090;BME280;66028;53.558;9.950;2024-02-26T11:08:40;100614.75;;;6.42;82.63
77090;BME280;66028;53.558;9.950;2024-02-26T11:11:06;100609.56;;;6.47;82.71
77090;BME280;66028;53.558;9.950;2024-02-26T11:13:33;100606.47;;;6.44;82.72
77090;BME280;66028;53.558;9.950;2024-02-26T11:15:59;100604.97;;;6.55;82.08
77090;BME280;66028;53.558;9.950;2024-02-26T11:18:27;100602.72;;;6.52;81.85
77090;BME280;66028;53.558;9.950;2024-02-26T11:20:54;100606.00;;;6.54;82.80
77090;BME280;66028;53.558;9.950;2024-02-26T11:23:22;100605.44;;;6.45;82.88
77090;BME280;66028;53.558;9.950;2024-02-26T11:25:47;100605.31;;;6.33;83.28
77090;BME280;66028;53.558;9.950;2024-02-26T11:28:16;100609.59;;;6.41;83.68
77090;BME280;66028;53.558;9.950;2024-02-26T11:30:46;100609.16;;;6.50;83.41
77090;BME280;66028;53.558;9.950;2024-02-26T11:33:14;100617.25;;;6.44;84.17
77090;BME280;66028;53.558;9.950;2024-02-26T11:35:40;100609.28;;;6.62;82.39
77090;BME280;66028;53.558;9.950;2024-02-26T11:38:05;100614.06;;;6.54;82.77
77090;BME280;66028;53.558;9.950;2024-02-26T11:40:33;100611.00;;;6.50;83.47
77090;BME280;66028;53.558;9.950;2024-02-26T11:42:58;100610.81;;;6.76;82.40
77090;BME280;66028;53.558;9.950;2024-02-26T11:48:11;100622.97;;;6.85;82.48
77090;BME280;66028;53.558;9.950;2024-02-26T11:50:39;100625.34;;;7.00;82.72
77090;BME280;66028;53.558;9.950;2024-02-26T11:53:24;100621.00;;;7.24;81.96
77090;BME280;66028;53.558;9.950;2024-02-26T11:58:41;100628.88;;;7.62;80.29
77090;BME280;66028;53.558;9.950;2024-02-26T12:01:42;100628.34;;;7.53;80.31
77090;BME280;66028;53.558;9.950;2024-02-26T12:04:24;100631.25;;;7.34;79.34
77090;BME280;66028;53.558;9.950;2024-02-26T12:07:00;100622.47;;;7.38;79.55
77090;BME280;66028;53.558;9.950;2024-02-26T12:09:39;100627.53;;;7.53;78.90
77090;BME280;66028;53.558;9.950;2024-02-26T12:12:09;100632.56;;;7.24;79.82
77090;BME280;66028;53.558;9.950;2024-02-26T12:14:39;100647.63;;;7.32;80.24
77090;BME280;66028;53.558;9.950;2024-02-26T12:17:22;100649.81;;;7.17;79.74
77090;BME280;66028;53.558;9.950;2024-02-26T12:19:47;100642.97;;;7.39;78.62
77090;BME280;66028;53.558;9.950;2024-02-26T12:22:13;100647.94;;;7.42;78.90
77090;BME280;66028;53.558;9.950;2024-02-26T12:24:39;100645.81;;;7.69;78.78
77090;BME280;66028;53.558;9.950;2024-02-26T12:27:05;100649.97;;;7.65;78.69
77090;BME280;66028;53.558;9.950;2024-02-26T12:29:31;100652.31;;;7.80;78.72
77090;BME280;66028;53.558;9.950;2024-02-26T12:31:56;100651.78;;;7.89;77.92
77090;BME280;66028;53.558;9.950;2024-02-26T12:34:22;100654.00;;;8.11;76.82
77090;BME280;66028;53.558;9.950;2024-02-26T12:36:48;100656.66;;;8.17;77.13
77090;BME280;66028;53.558;9.950;2024-02-26T12:39:13;100664.13;;;7.97;77.68
77090;BME280;66028;53.558;9.950;2024-02-26T12:41:38;100666.09;;;7.90;78.28
77090;BME280;66028;53.558;9.950;2024-02-26T12:44:04;100666.19;;;7.83;78.54
77090;BME280;66028;53.558;9.950;2024-02-26T12:46:29;100675.59;;;7.74;79.29
77090;BME280;66028;53.558;9.950;2024-02-26T12:48:56;100671.69;;;7.88;79.21
77090;BME280;66028;53.558;9.950;2024-02-26T12:51:23;100675.09;;;8.20;77.26
77090;BME280;66028;53.558;9.950;2024-02-26T12:53:50;100677.69;;;7.90;77.78